Time;durP1;ratioP1;P1;durP2;ratioP2;P2;SDS_P1;SDS_P2;PMS_P1;PMS_P2;Temp;Humidity;BMP_temperature;BMP_pressure;BME280_temperature;BME280_humidity;BME280_pressure;Samples;Min_cycle;Max_cycle;Signal;HPM_P1;HPM_P2
2021/07/10 00:01:01;;;;;;;5.40;3.65;;;23.90;58.90;;;;;;5069056;28;20051;-44
2021/07/10 00:03:26;;;;;;;5.53;3.85;;;24.00;59.00;;;;;;5057849;28;20024;-45
2021/07/10 00:05:52;;;;;;;4.55;3.53;;;24.00;59.00;;;;;;5061583;28;20105;-44
2021/07/10 00:08:18;;;;;;;3.88;3.45;;;24.00;59.00;;;;;;5056582;28;20032;-44
2021/07/10 00:10:43;;;;;;;4.07;3.63;;;24.00;59.00;;;;;;5059953;28;20135;-44
2021/07/10 00:13:09;;;;;;;4.22;3.38;;;24.00;59.00;;;;;;5067297;28;20024;-46
2021/07/10 00:15:35;;;;;;;4.20;3.55;;;24.00;58.80;;;;;;5060631;28;20037;-44
2021/07/10 00:18:00;;;;;;;4.55;3.88;;;24.00;59.10;;;;;;5052504;28;20033;-44
2021/07/10 00:20:26;;;;;;;4.50;3.50;;;24.00;59.10;;;;;;5068368;28;20257;-44
2021/07/10 00:22:52;;;;;;;3.75;3.10;;;24.00;59.10;;;;;;5054829;28;20029;-44
2021/07/10 00:25:20;;;;;;;6.05;3.42;;;24.00;59.00;;;;;;5038337;28;20033;-45
2021/07/10 00:27:48;;;;;;;6.38;3.53;;;24.00;59.00;;;;;;5059855;28;20060;-50
2021/07/10 00:30:17;;;;;;;4.85;3.80;;;24.00;59.00;;;;;;5054444;28;20036;-45
2021/07/10 00:32:44;;;;;;;5.78;3.53;;;24.00;59.00;;;;;;5064185;28;20478;-44
2021/07/10 00:35:10;;;;;;;4.22;3.75;;;23.90;58.70;;;;;;5060808;28;20233;-47
2021/07/10 00:37:36;;;;;;;3.85;3.47;;;23.90;58.70;;;;;;5067965;28;20029;-44
2021/07/10 00:40:04;;;;;;;4.15;3.75;;;23.90;58.70;;;;;;5047166;28;20377;-45
2021/07/10 00:42:29;;;;;;;3.90;3.47;;;23.90;58.60;;;;;;5061968;28;20035;-44
2021/07/10 00:44:55;;;;;;;4.75;3.70;;;23.80;58.60;;;;;;5070710;28;20389;-45
2021/07/10 00:47:21;;;;;;;5.50;4.07;;;23.80;58.50;;;;;;5068988;28;20029;-44
2021/07/10 00:49:46;;;;;;;3.58;3.28;;;23.80;58.50;;;;;;5055643;28;20083;-44
2021/07/10 00:52:12;;;;;;;4.20;3.63;;;23.80;58.50;;;;;;5067087;28;20028;-44
2021/07/10 00:54:37;;;;;;;3.65;3.03;;;23.80;58.40;;;;;;5034263;28;20032;-45
2021/07/10 00:57:04;;;;;;;5.00;3.67;;;23.80;58.40;;;;;;5052898;28;20029;-44
2021/07/10 00:59:32;;;;;;;4.22;3.58;;;23.80;58.50;;;;;;5069829;28;20072;-45
2021/07/10 01:01:57;;;;;;;3.22;2.80;;;23.90;58.50;;;;;;5054950;28;20040;-45
2021/07/10 01:04:23;;;;;;;3.92;3.22;;;23.90;58.50;;;;;;5051019;28;20029;-45
2021/07/10 01:06:49;;;;;;;5.47;3.53;;;23.90;58.50;;;;;;5063374;28;20446;-44
2021/07/10 01:09:15;;;;;;;3.63;3.00;;;23.80;58.40;;;;;;5061934;28;20064;-44
2021/07/10 01:11:41;;;;;;;4.43;3.65;;;23.90;58.50;;;;;;5061163;28;20111;-46
2021/07/10 01:14:07;;;;;;;4.57;3.17;;;23.90;58.50;;;;;;5061555;28;20033;-55
2021/07/10 01:16:33;;;;;;;3.80;3.05;;;23.90;58.40;;;;;;5061499;28;20025;-45
2021/07/10 01:18:59;;;;;;;3.80;3.10;;;23.80;58.20;;;;;;5068023;28;20099;-48
2021/07/10 01:21:24;;;;;;;3.55;3.25;;;23.80;58.20;;;;;;5053492;28;20028;-44
2021/07/10 01:23:51;;;;;;;4.05;3.33;;;23.70;58.20;;;;;;5066041;28;20040;-44
2021/07/10 01:26:17;;;;;;;5.35;3.30;;;23.70;58.20;;;;;;5065063;28;20107;-44
2021/07/10 01:28:43;;;;;;;3.33;2.88;;;23.70;58.10;;;;;;5047702;28;20474;-44
2021/07/10 01:31:09;;;;;;;3.33;3.03;;;23.70;58.10;;;;;;5055102;28;20040;-56
2021/07/10 01:33:35;;;;;;;5.68;3.47;;;23.60;57.90;;;;;;5058267;28;20032;-44
2021/07/10 01:36:01;;;;;;;4.82;3.15;;;23.70;58.00;;;;;;5061062;28;20021;-44
2021/07/10 01:38:27;;;;;;;4.25;3.30;;;23.70;57.90;;;;;;5069844;28;20090;-45
2021/07/10 01:40:52;;;;;;;3.65;3.10;;;23.70;57.80;;;;;;5063594;28;20389;-44
2021/07/10 01:43:18;;;;;;;4.57;3.22;;;23.80;58.10;;;;;;5070918;28;20065;-45
2021/07/10 01:45:44;;;;;;;4.13;3.17;;;23.80;58.00;;;;;;5054121;28;20092;-50
2021/07/10 01:48:12;;;;;;;6.05;3.30;;;23.80;58.20;;;;;;5068697;28;20029;-55
2021/07/10 01:50:39;;;;;;;3.35;2.80;;;23.80;58.20;;;;;;5069323;28;20646;-45
2021/07/10 01:53:04;;;;;;;4.30;3.15;;;23.80;58.10;;;;;;5072271;28;20048;-48
2021/07/10 01:55:30;;;;;;;3.33;2.90;;;23.80;58.20;;;;;;5070233;28;20398;-46
2021/07/10 01:57:57;;;;;;;4.68;3.15;;;23.80;58.10;;;;;;5070907;28;20028;-46
2021/07/10 02:00:32;;;;;;;6.72;3.20;;;23.80;58.10;;;;;;5069428;28;20159;-44
2021/07/10 02:02:58;;;;;;;4.40;2.80;;;23.80;58.10;;;;;;5068152;28;20032;-47
2021/07/10 02:05:26;;;;;;;4.75;2.90;;;23.80;58.10;;;;;;5069354;28;20484;-45
2021/07/10 02:07:53;;;;;;;3.42;2.70;;;23.80;58.10;;;;;;5067791;28;20025;-44
2021/07/10 02:10:21;;;;;;;3.65;2.63;;;23.80;58.10;;;;;;5068420;28;20545;-44
2021/07/10 02:12:52;;;;;;;3.58;3.25;;;23.80;57.80;;;;;;5071475;28;20044;-48
2021/07/10 02:15:18;;;;;;;3.35;2.80;;;23.80;57.80;;;;;;5070297;28;20158;-45
2021/07/10 02:17:44;;;;;;;3.47;2.70;;;23.70;57.60;;;;;;5068107;28;20030;-44
2021/07/10 02:20:18;;;;;;;3.13;2.80;;;23.70;57.70;;;;;;5068215;28;20033;-55
2021/07/10 02:22:45;;;;;;;3.83;3.17;;;23.60;57.60;;;;;;5070829;28;20542;-44
2021/07/10 02:25:13;;;;;;;3.50;3.05;;;23.70;57.80;;;;;;5058235;28;20100;-51
2021/07/10 02:27:39;;;;;;;3.38;2.47;;;23.80;57.90;;;;;;5070300;28;20025;-46
2021/07/10 02:30:15;;;;;;;3.92;2.78;;;23.80;57.80;;;;;;5044079;28;20044;-45
2021/07/10 02:32:41;;;;;;;3.20;2.72;;;23.80;57.70;;;;;;5062165;28;20124;-46
2021/07/10 02:35:09;;;;;;;5.10;3.05;;;23.80;57.80;;;;;;5061538;28;20033;-53
2021/07/10 02:37:35;;;;;;;3.10;2.53;;;23.80;57.80;;;;;;5049994;28;20134;-45
2021/07/10 02:40:02;;;;;;;4.82;3.17;;;23.70;57.40;;;;;;5056415;28;20047;-45
2021/07/10 02:42:28;;;;;;;3.47;3.17;;;23.80;57.60;;;;;;5067610;28;20020;-45
2021/07/10 02:44:53;;;;;;;4.45;2.90;;;23.80;57.70;;;;;;5068469;28;20420;-44
2021/07/10 02:47:19;;;;;;;3.00;2.53;;;23.80;57.60;;;;;;5060222;28;20098;-45
2021/07/10 02:49:45;;;;;;;5.57;2.85;;;23.80;57.60;;;;;;5060961;28;20061;-46
2021/07/10 02:52:11;;;;;;;3.15;2.58;;;23.80;57.60;;;;;;5053694;28;20029;-55
2021/07/10 02:54:37;;;;;;;3.72;3.30;;;23.80;57.50;;;;;;5063885;28;20052;-44
2021/07/10 02:57:04;;;;;;;3.63;2.50;;;23.70;57.40;;;;;;5058967;28;20091;-45
2021/07/10 02:59:29;;;;;;;3.20;2.55;;;23.80;57.50;;;;;;5068873;28;20628;-44
2021/07/10 03:01:55;;;;;;;2.97;2.22;;;23.80;57.50;;;;;;5062502;28;20043;-45
2021/07/10 03:04:21;;;;;;;2.63;2.40;;;23.80;57.50;;;;;;5065455;28;20104;-45
2021/07/10 03:06:47;;;;;;;4.25;2.75;;;23.80;57.50;;;;;;5061498;28;20086;-45
2021/07/10 03:09:12;;;;;;;4.18;2.80;;;23.80;57.40;;;;;;5044340;28;20528;-49
2021/07/10 03:11:38;;;;;;;3.50;2.70;;;23.80;57.90;;;;;;5067979;28;20029;-45
2021/07/10 03:14:03;;;;;;;3.72;2.83;;;23.70;57.20;;;;;;5059516;28;20020;-45
2021/07/10 03:16:29;;;;;;;4.43;2.78;;;23.80;57.30;;;;;;5061418;28;20566;-49
2021/07/10 03:18:55;;;;;;;3.95;3.05;;;23.80;57.40;;;;;;5059797;28;20052;-45
2021/07/10 03:21:21;;;;;;;3.92;2.75;;;23.80;57.40;;;;;;5056334;28;20029;-45
2021/07/10 03:23:46;;;;;;;3.38;2.90;;;23.80;57.40;;;;;;5061645;28;20028;-45
2021/07/10 03:26:12;;;;;;;2.55;2.30;;;23.80;57.20;;;;;;5045658;28;20052;-47
2021/07/10 03:28:38;;;;;;;3.20;2.58;;;23.80;57.20;;;;;;5065191;28;20036;-45
2021/07/10 03:31:04;;;;;;;3.83;2.28;;;23.80;57.30;;;;;;5053979;28;20029;-48
2021/07/10 03:33:34;;;;;;;3.08;2.30;;;23.70;57.20;;;;;;5060540;28;20048;-47
2021/07/10 03:36:00;;;;;;;3.65;2.72;;;23.80;57.20;;;;;;5034842;28;20115;-47
2021/07/10 03:38:26;;;;;;;3.28;2.40;;;23.80;57.10;;;;;;5066962;28;20029;-47
2021/07/10 03:40:51;;;;;;;3.45;2.60;;;23.70;57.10;;;;;;5045651;28;20428;-48
2021/07/10 03:43:17;;;;;;;3.42;2.60;;;23.70;56.90;;;;;;5059103;28;20083;-49
2021/07/10 03:45:43;;;;;;;3.53;2.72;;;23.60;56.80;;;;;;5055298;28;20369;-44
2021/07/10 03:48:09;;;;;;;2.97;2.08;;;23.60;56.70;;;;;;5067848;28;20450;-58
2021/07/10 03:50:35;;;;;;;2.88;2.60;;;23.60;56.70;;;;;;5052955;28;20120;-48
2021/07/10 03:53:01;;;;;;;3.10;2.63;;;23.60;56.70;;;;;;5063497;28;20152;-45
2021/07/10 03:55:27;;;;;;;4.47;2.20;;;23.70;56.90;;;;;;5051114;28;20144;-45
2021/07/10 03:57:52;;;;;;;2.63;2.42;;;23.70;56.70;;;;;;5066430;28;20498;-48
2021/07/10 04:00:20;;;;;;;5.65;2.45;;;23.70;56.70;;;;;;5051726;28;20103;-49
2021/07/10 04:02:46;;;;;;;4.60;2.50;;;23.70;56.70;;;;;;5067399;28;20028;-44
2021/07/10 04:05:12;;;;;;;2.67;2.45;;;23.70;56.60;;;;;;5052907;28;20033;-55
2021/07/10 04:07:38;;;;;;;3.38;2.35;;;23.70;56.60;;;;;;5051589;28;20360;-44
2021/07/10 04:10:09;;;;;;;3.05;2.42;;;23.70;56.60;;;;;;5063025;28;20033;-45
2021/07/10 04:12:35;;;;;;;4.72;2.13;;;23.70;56.70;;;;;;5064822;28;20039;-45
2021/07/10 04:15:01;;;;;;;2.33;2.13;;;23.70;56.50;;;;;;5056499;28;20020;-45
2021/07/10 04:17:31;;;;;;;5.50;3.20;;;23.70;56.60;;;;;;5065124;28;20087;-44
2021/07/10 04:19:57;;;;;;;2.67;2.40;;;23.70;56.60;;;;;;5060829;28;20473;-44
2021/07/10 04:22:23;;;;;;;3.83;2.17;;;23.70;56.70;;;;;;5058159;28;20063;-45
2021/07/10 04:24:49;;;;;;;4.32;2.38;;;23.70;56.60;;;;;;5066360;28;20056;-44
2021/07/10 04:27:15;;;;;;;2.97;2.30;;;23.70;56.60;;;;;;5054438;28;20465;-45
2021/07/10 04:29:44;;;;;;;2.30;2.03;;;23.70;56.70;;;;;;5064138;28;20041;-45
2021/07/10 04:32:12;;;;;;;3.00;2.40;;;23.70;57.30;;;;;;5061860;28;20029;-44
2021/07/10 04:34:38;;;;;;;2.45;2.25;;;23.70;56.50;;;;;;5058115;28;20021;-44
2021/07/10 04:37:04;;;;;;;3.50;2.88;;;23.70;56.60;;;;;;5059670;28;20118;-44
2021/07/10 04:39:29;;;;;;;3.75;2.38;;;23.70;56.60;;;;;;5060051;28;20101;-49
2021/07/10 04:41:55;;;;;;;3.75;2.60;;;23.70;56.60;;;;;;5059097;28;20470;-47
2021/07/10 04:44:21;;;;;;;4.82;2.45;;;23.70;56.60;;;;;;5052870;28;20036;-45
2021/07/10 04:46:47;;;;;;;2.53;2.33;;;23.70;56.50;;;;;;5061054;28;20469;-45
2021/07/10 04:49:14;;;;;;;4.20;2.50;;;23.70;56.50;;;;;;5068269;28;20363;-55
2021/07/10 04:51:40;;;;;;;3.15;2.17;;;23.70;56.60;;;;;;5064200;28;20050;-44
2021/07/10 04:54:06;;;;;;;2.78;2.30;;;23.70;56.50;;;;;;5055673;28;20101;-45
2021/07/10 04:56:31;;;;;;;2.90;2.70;;;23.70;56.50;;;;;;5058761;28;20062;-45
2021/07/10 04:58:57;;;;;;;2.85;2.38;;;23.70;56.50;;;;;;5058757;28;20085;-47
2021/07/10 05:01:22;;;;;;;2.75;2.40;;;23.70;56.60;;;;;;5051491;28;20052;-45
2021/07/10 05:03:48;;;;;;;2.40;2.20;;;23.70;56.60;;;;;;5062473;28;20025;-44
2021/07/10 05:06:14;;;;;;;2.25;2.05;;;23.70;56.60;;;;;;5061676;28;20052;-54
2021/07/10 05:08:39;;;;;;;5.40;3.08;;;23.70;56.50;;;;;;5068350;28;20029;-45
2021/07/10 05:11:05;;;;;;;2.90;2.40;;;23.70;56.50;;;;;;5063072;28;20067;-46
2021/07/10 05:13:30;;;;;;;5.15;3.72;;;23.70;56.60;;;;;;5055278;28;20947;-44
2021/07/10 05:15:56;;;;;;;3.70;2.88;;;23.70;56.40;;;;;;5067159;28;20110;-47
2021/07/10 05:18:22;;;;;;;3.35;2.70;;;23.70;56.50;;;;;;5056985;28;20428;-45
2021/07/10 05:20:48;;;;;;;2.67;2.45;;;23.70;56.50;;;;;;5054047;28;20030;-45
2021/07/10 05:23:14;;;;;;;3.10;2.45;;;23.70;56.50;;;;;;5068680;28;20111;-51
2021/07/10 05:25:39;;;;;;;3.55;2.20;;;23.70;56.50;;;;;;5057857;28;20032;-44
2021/07/10 05:28:05;;;;;;;2.60;2.30;;;23.70;56.50;;;;;;5065182;28;20474;-45
2021/07/10 05:30:31;;;;;;;3.10;2.58;;;23.70;56.50;;;;;;5050572;28;20064;-44
2021/07/10 05:32:57;;;;;;;2.92;2.35;;;23.70;56.50;;;;;;5060292;28;20025;-46
2021/07/10 05:35:23;;;;;;;4.50;2.78;;;23.70;56.60;;;;;;5039096;28;20032;-44
2021/07/10 05:37:49;;;;;;;4.38;2.80;;;23.70;56.60;;;;;;5061253;28;20029;-44
2021/07/10 05:40:15;;;;;;;2.75;2.50;;;23.70;56.50;;;;;;5061866;28;20474;-55
2021/07/10 05:42:41;;;;;;;2.58;2.38;;;23.70;56.50;;;;;;5069261;28;20108;-45
2021/07/10 05:45:07;;;;;;;2.90;2.28;;;23.80;56.90;;;;;;5054312;28;20029;-48
2021/07/10 05:47:34;;;;;;;3.35;2.22;;;23.80;56.80;;;;;;5061066;28;20520;-44
2021/07/10 05:49:59;;;;;;;4.22;2.20;;;23.80;56.60;;;;;;5047527;28;20575;-45
2021/07/10 05:52:25;;;;;;;4.07;2.65;;;23.80;56.80;;;;;;5057439;28;20048;-44
2021/07/10 05:54:51;;;;;;;2.58;2.15;;;23.90;57.00;;;;;;5062552;28;20068;-47
2021/07/10 05:57:16;;;;;;;4.90;2.50;;;23.90;57.10;;;;;;5068062;28;20029;-53
2021/07/10 05:59:42;;;;;;;2.63;1.92;;;23.90;57.20;;;;;;5043505;28;20045;-46
2021/07/10 06:02:08;;;;;;;3.20;2.22;;;23.90;57.40;;;;;;5067892;28;20032;-48
2021/07/10 06:04:34;;;;;;;3.92;2.55;;;24.00;57.60;;;;;;5061318;28;20020;-48
2021/07/10 06:07:00;;;;;;;6.05;3.25;;;24.10;57.40;;;;;;5063180;28;20060;-46
2021/07/10 06:09:26;;;;;;;8.95;3.40;;;24.10;57.30;;;;;;5067531;28;20045;-50
2021/07/10 06:11:52;;;;;;;4.63;3.03;;;24.10;57.70;;;;;;5069688;28;20036;-45
2021/07/10 06:14:18;;;;;;;4.97;2.53;;;24.10;57.60;;;;;;5069174;28;20036;-46
2021/07/10 06:16:44;;;;;;;5.32;2.95;;;24.10;57.70;;;;;;5068559;28;20346;-49
2021/07/10 06:19:10;;;;;;;7.03;2.72;;;24.10;57.80;;;;;;5070879;28;20024;-45
2021/07/10 06:21:35;;;;;;;7.13;3.03;;;24.00;58.00;;;;;;5066582;28;20047;-49
2021/07/10 06:24:01;;;;;;;4.53;2.30;;;24.00;58.10;;;;;;5052364;28;20414;-48
2021/07/10 06:26:27;;;;;;;6.50;2.72;;;24.00;58.10;;;;;;5068793;28;20402;-46
2021/07/10 06:28:52;;;;;;;4.32;2.35;;;24.00;58.00;;;;;;5069946;28;20020;-45
2021/07/10 06:31:19;;;;;;;5.07;3.15;;;24.10;58.10;;;;;;5068161;28;20497;-45
2021/07/10 06:33:45;;;;;;;4.60;2.38;;;24.10;58.20;;;;;;5068392;28;20095;-46
2021/07/10 06:36:12;;;;;;;6.60;2.53;;;24.00;58.30;;;;;;5070533;28;20502;-45
2021/07/10 06:38:37;;;;;;;10.20;3.00;;;24.00;58.30;;;;;;5067565;28;20474;-52
2021/07/10 06:41:03;;;;;;;16.77;3.05;;;24.00;58.60;;;;;;5070319;28;20085;-45
2021/07/10 06:43:28;;;;;;;18.33;3.65;;;23.90;59.00;;;;;;5065980;28;20047;-47
2021/07/10 06:45:54;;;;;;;8.18;3.17;;;23.90;59.50;;;;;;5070166;28;20021;-45
2021/07/10 06:48:20;;;;;;;12.32;3.88;;;23.90;59.20;;;;;;5070948;28;20478;-50
2021/07/10 06:50:46;;;;;;;8.27;2.85;;;23.90;59.60;;;;;;5068009;28;20041;-47
2021/07/10 06:53:11;;;;;;;8.60;3.45;;;23.90;59.70;;;;;;5069398;28;20489;-49
2021/07/10 06:55:37;;;;;;;10.55;3.63;;;23.90;59.60;;;;;;5068530;28;20033;-50
2021/07/10 06:58:03;;;;;;;8.10;2.80;;;24.00;59.60;;;;;;5070677;28;20051;-46
2021/07/10 07:00:28;;;;;;;13.88;3.63;;;24.00;59.60;;;;;;5069149;28;20065;-47
2021/07/10 07:02:55;;;;;;;14.38;3.60;;;24.00;60.00;;;;;;5071740;28;20410;-47
2021/07/10 07:05:21;;;;;;;9.82;3.13;;;24.00;59.90;;;;;;5066859;28;20058;-49
2021/07/10 07:07:47;;;;;;;9.07;3.00;;;24.00;59.90;;;;;;5068006;28;20052;-53
2021/07/10 07:10:13;;;;;;;9.73;3.17;;;23.90;59.70;;;;;;5069366;28;20151;-46
2021/07/10 07:12:40;;;;;;;7.97;2.78;;;24.00;59.80;;;;;;5070134;28;20103;-49
2021/07/10 07:15:08;;;;;;;12.00;3.97;;;24.00;59.80;;;;;;5068676;28;20028;-46
2021/07/10 07:17:34;;;;;;;7.82;3.15;;;24.00;59.80;;;;;;5069642;28;20039;-49
2021/07/10 07:20:00;;;;;;;5.57;2.78;;;23.90;59.80;;;;;;5069384;28;20103;-46
2021/07/10 07:22:25;;;;;;;10.93;3.72;;;23.90;59.80;;;;;;5048775;28;20028;-47
2021/07/10 07:24:51;;;;;;;6.22;2.88;;;23.90;59.70;;;;;;5069377;28;20036;-47
2021/07/10 07:27:17;;;;;;;5.95;2.50;;;23.90;59.90;;;;;;5065972;28;20074;-57
2021/07/10 07:29:42;;;;;;;4.43;3.15;;;23.90;59.80;;;;;;5069507;28;20032;-49
2021/07/10 07:32:08;;;;;;;6.30;2.80;;;23.90;59.60;;;;;;5069651;28;20398;-45
2021/07/10 07:34:34;;;;;;;6.10;2.53;;;23.90;59.80;;;;;;5068426;28;20024;-47
2021/07/10 07:36:59;;;;;;;9.60;2.95;;;23.90;60.00;;;;;;5067697;28;20390;-50
2021/07/10 07:39:25;;;;;;;7.68;3.10;;;23.90;60.00;;;;;;5066734;28;20040;-46
2021/07/10 07:41:51;;;;;;;5.07;2.53;;;23.90;60.00;;;;;;5067593;28;20055;-47
2021/07/10 07:44:17;;;;;;;8.80;2.58;;;23.90;60.00;;;;;;5066860;28;20538;-56
2021/07/10 07:46:43;;;;;;;5.47;2.80;;;24.00;60.10;;;;;;5069510;28;20028;-47
2021/07/10 07:49:08;;;;;;;6.80;2.75;;;23.90;59.90;;;;;;5069348;28;20036;-46
2021/07/10 07:51:34;;;;;;;5.47;2.50;;;24.00;60.00;;;;;;5067330;28;20031;-49
2021/07/10 07:54:00;;;;;;;5.70;2.92;;;23.90;60.00;;;;;;5069074;28;20511;-48
2021/07/10 07:56:26;;;;;;;5.00;3.17;;;24.00;60.00;;;;;;5066764;28;20028;-51
2021/07/10 07:58:51;;;;;;;4.90;2.42;;;24.00;60.00;;;;;;5069347;28;20154;-49
2021/07/10 08:01:17;;;;;;;4.38;2.60;;;23.90;60.00;;;;;;5065023;28;20416;-57
2021/07/10 08:03:43;;;;;;;6.30;2.33;;;23.90;59.60;;;;;;5069202;28;20031;-47
2021/07/10 08:06:09;;;;;;;4.57;3.10;;;23.90;59.60;;;;;;5065793;28;20024;-47
2021/07/10 08:08:36;;;;;;;3.00;2.38;;;23.90;59.80;;;;;;5066882;28;20024;-47
2021/07/10 08:11:07;;;;;;;4.22;2.65;;;23.90;59.90;;;;;;5069136;28;20115;-50
2021/07/10 08:13:34;;;;;;;3.60;2.85;;;23.90;59.70;;;;;;5066712;28;20037;-49
2021/07/10 08:16:00;;;;;;;2.38;2.17;;;23.90;59.40;;;;;;5069802;28;20377;-46
2021/07/10 08:18:26;;;;;;;3.97;2.78;;;23.90;59.50;;;;;;5068373;28;20027;-49
2021/07/10 08:20:51;;;;;;;5.45;2.63;;;23.90;59.80;;;;;;5062489;28;20029;-46
2021/07/10 08:23:17;;;;;;;4.03;2.35;;;23.90;59.60;;;;;;5070189;28;20035;-56
2021/07/10 08:25:43;;;;;;;3.15;2.50;;;23.90;59.30;;;;;;5061881;28;20096;-48
2021/07/10 08:28:08;;;;;;;5.38;2.95;;;23.90;59.10;;;;;;5058561;28;20029;-50
2021/07/10 08:30:34;;;;;;;3.50;2.72;;;23.90;59.00;;;;;;5054064;28;20261;-49
2021/07/10 08:33:00;;;;;;;4.35;2.60;;;23.90;59.00;;;;;;5039419;28;20067;-49
2021/07/10 08:35:26;;;;;;;5.25;2.72;;;23.90;58.90;;;;;;5067022;28;20036;-45
2021/07/10 08:37:52;;;;;;;4.13;2.80;;;23.90;58.80;;;;;;5051896;28;20029;-47
2021/07/10 08:40:17;;;;;;;3.72;3.13;;;23.90;59.10;;;;;;5067577;28;20075;-45
2021/07/10 08:42:43;;;;;;;5.22;2.38;;;23.90;59.30;;;;;;5066129;28;20045;-46
2021/07/10 08:45:12;;;;;;;4.38;2.88;;;23.90;59.40;;;;;;5051845;28;20017;-48
2021/07/10 08:47:41;;;;;;;4.28;2.72;;;23.90;59.30;;;;;;5059834;28;20033;-47
2021/07/10 08:50:12;;;;;;;5.88;2.80;;;23.90;59.20;;;;;;5061144;28;20362;-47
2021/07/10 08:52:38;;;;;;;3.67;2.78;;;23.90;59.20;;;;;;5061119;28;20618;-45
2021/07/10 08:55:06;;;;;;;8.15;2.78;;;24.00;59.00;;;;;;5066698;28;20029;-48
2021/07/10 08:57:35;;;;;;;3.33;2.60;;;24.00;59.00;;;;;;5065012;28;20119;-47
2021/07/10 09:00:08;;;;;;;5.25;2.20;;;24.00;59.00;;;;;;5067392;28;20500;-48
2021/07/10 09:02:34;;;;;;;3.50;2.63;;;24.00;58.80;;;;;;5066820;28;20036;-45
2021/07/10 09:05:02;;;;;;;3.80;2.28;;;24.00;58.30;;;;;;5059307;28;20059;-46
2021/07/10 09:07:27;;;;;;;3.85;2.30;;;24.00;58.40;;;;;;5067202;28;20028;-45
2021/07/10 09:09:53;;;;;;;5.63;2.70;;;24.10;58.70;;;;;;5062000;28;20389;-45
2021/07/10 09:12:29;;;;;;;4.47;2.78;;;24.20;58.80;;;;;;5063031;28;20381;-57
2021/07/10 09:14:56;;;;;;;3.83;2.30;;;24.20;58.70;;;;;;5064353;28;20494;-46
2021/07/10 09:17:26;;;;;;;2.30;2.10;;;24.10;58.80;;;;;;5058979;28;20111;-45
2021/07/10 09:19:54;;;;;;;2.65;2.33;;;24.10;59.20;;;;;;5060912;28;21648;-45
2021/07/10 09:22:28;;;;;;;5.47;2.10;;;24.10;58.70;;;;;;5065163;28;20097;-49
2021/07/10 09:24:56;;;;;;;2.42;2.17;;;24.00;58.40;;;;;;5061389;28;20097;-49
2021/07/10 09:27:21;;;;;;;2.90;2.60;;;24.00;57.50;;;;;;5053824;28;20378;-48
2021/07/10 09:29:49;;;;;;;2.80;2.00;;;24.00;57.50;;;;;;5051985;28;20033;-45
2021/07/10 09:32:22;;;;;;;2.58;1.92;;;24.00;57.50;;;;;;5063371;28;20048;-49
2021/07/10 09:34:56;;;;;;;5.32;2.47;;;24.00;57.10;;;;;;5069813;28;20108;-55
2021/07/10 09:37:29;;;;;;;12.70;2.50;;;24.10;56.30;;;;;;5064627;28;20029;-48
2021/07/10 09:39:59;;;;;;;11.43;2.40;;;24.10;56.40;;;;;;5058453;28;20060;-46
2021/07/10 09:42:37;;;;;;;5.20;2.40;;;24.10;56.50;;;;;;5053496;28;20052;-46
2021/07/10 09:45:14;;;;;;;4.35;2.00;;;24.10;56.80;;;;;;5038592;28;20108;-46
2021/07/10 09:47:41;;;;;;;3.90;2.22;;;24.20;56.30;;;;;;5058129;28;20123;-46
2021/07/10 09:50:08;;;;;;;7.28;2.20;;;24.20;56.70;;;;;;5059848;28;20040;-46
2021/07/10 09:52:36;;;;;;;2.50;2.03;;;24.20;57.30;;;;;;5061931;28;20060;-46
2021/07/10 09:55:13;;;;;;;5.05;2.42;;;24.20;57.40;;;;;;5062999;28;20021;-48
2021/07/10 09:57:41;;;;;;;4.45;1.92;;;24.20;56.50;;;;;;5062134;28;20386;-46
2021/07/10 10:00:12;;;;;;;2.78;2.13;;;24.20;56.60;;;;;;5055549;28;20460;-45
2021/07/10 10:02:42;;;;;;;3.78;2.10;;;24.20;56.10;;;;;;5066508;28;20061;-46
2021/07/10 10:05:10;;;;;;;3.78;2.30;;;24.20;56.20;;;;;;5062607;28;20021;-46
2021/07/10 10:07:55;;;;;;;5.38;2.40;;;24.20;55.50;;;;;;5066996;28;20033;-51
2021/07/10 10:10:20;;;;;;;2.20;1.88;;;24.20;55.40;;;;;;5066348;28;20086;-56
2021/07/10 10:13:04;;;;;;;1.98;1.70;;;24.20;56.30;;;;;;5060692;28;20417;-45
2021/07/10 10:15:31;;;;;;;3.03;2.22;;;24.20;55.90;;;;;;5065326;28;20085;-58
2021/07/10 10:17:57;;;;;;;3.20;1.77;;;24.30;55.80;;;;;;5064677;28;20087;-45
2021/07/10 10:20:23;;;;;;;3.17;2.00;;;24.30;56.10;;;;;;5070081;28;20028;-56
2021/07/10 10:22:49;;;;;;;3.42;1.80;;;24.30;56.30;;;;;;5047256;28;20078;-48
2021/07/10 10:25:16;;;;;;;2.17;1.95;;;24.30;56.80;;;;;;5070207;28;20109;-46
2021/07/10 10:27:45;;;;;;;2.95;2.05;;;24.30;56.20;;;;;;5063562;28;20052;-47
2021/07/10 10:30:11;;;;;;;2.40;1.60;;;24.30;56.30;;;;;;5062710;28;20060;-52
2021/07/10 10:32:37;;;;;;;2.45;1.65;;;24.30;56.40;;;;;;5065732;28;20082;-44
2021/07/10 10:35:03;;;;;;;4.60;2.10;;;24.30;56.40;;;;;;5059320;28;20458;-46
2021/07/10 10:37:29;;;;;;;2.45;1.83;;;24.30;56.30;;;;;;5061542;28;20203;-45
2021/07/10 10:39:55;;;;;;;3.33;1.90;;;24.30;56.40;;;;;;5070230;28;20043;-45
2021/07/10 10:42:23;;;;;;;2.30;1.63;;;24.30;56.50;;;;;;5053829;28;20075;-56
2021/07/10 10:44:54;;;;;;;2.05;1.70;;;24.30;56.40;;;;;;5068089;28;20114;-47
2021/07/10 10:47:22;;;;;;;4.30;1.70;;;24.30;56.40;;;;;;5064518;28;20078;-54
2021/07/10 10:49:57;;;;;;;2.92;2.17;;;24.30;56.30;;;;;;5060515;28;20055;-45
2021/07/10 10:52:27;;;;;;;1.83;1.70;;;24.30;56.30;;;;;;5057314;28;20514;-57
2021/07/10 10:55:28;;;;;;;3.00;1.90;;;24.30;56.30;;;;;;5056247;28;20539;-45
2021/07/10 10:58:02;;;;;;;2.33;1.95;;;24.30;56.30;;;;;;5052893;28;20478;-45
2021/07/10 11:00:31;;;;;;;3.25;1.80;;;24.30;56.10;;;;;;5071601;28;20060;-46
2021/07/10 11:03:00;;;;;;;2.08;1.73;;;24.30;56.10;;;;;;5062930;28;20036;-45
2021/07/10 11:05:32;;;;;;;2.70;1.65;;;24.30;56.20;;;;;;5068172;28;20028;-47
2021/07/10 11:08:16;;;;;;;;;;;24.30;56.20;;;;;;5062269;28;20032;-49
2021/07/10 11:10:41;;;;;;;2.40;1.73;;;24.30;56.30;;;;;;5067695;28;19912;-46
2021/07/10 11:13:25;;;;;;;2.17;1.58;;;24.30;56.30;;;;;;5057712;28;20051;-46
2021/07/10 11:16:22;;;;;;;1.48;1.35;;;24.30;56.20;;;;;;5054863;28;20029;-51
2021/07/10 11:18:58;;;;;;;2.97;1.70;;;24.30;56.80;;;;;;5053252;28;20108;-49
2021/07/10 11:21:35;;;;;;;3.20;1.65;;;24.30;56.30;;;;;;5068158;28;20082;-56
2021/07/10 11:26:56;;;;;;;4.40;2.33;;;24.30;56.40;;;;;;5053392;28;20075;-45
2021/07/10 11:29:33;;;;;;;1.70;1.60;;;24.30;56.40;;;;;;5068047;28;20028;-56
2021/07/10 11:32:11;;;;;;;3.60;1.77;;;24.30;56.40;;;;;;5065147;28;20032;-46
2021/07/10 11:34:37;;;;;;;1.98;1.50;;;24.30;56.40;;;;;;5062962;28;20115;-45
2021/07/10 11:37:29;;;;;;;1.70;1.60;;;24.30;56.30;;;;;;5053905;28;20462;-46
2021/07/10 11:40:00;;;;;;;3.00;2.10;;;24.30;56.40;;;;;;5068569;28;20035;-46
2021/07/10 11:42:32;;;;;;;1.52;1.33;;;24.30;56.30;;;;;;5068624;28;20033;-56
2021/07/10 11:45:08;;;;;;;3.30;1.83;;;24.30;56.50;;;;;;5059936;28;20020;-50
2021/07/10 11:47:38;;;;;;;2.17;1.50;;;24.30;56.40;;;;;;5069502;28;20480;-46
2021/07/10 11:50:26;;;;;;;5.30;1.75;;;24.30;56.40;;;;;;5057424;28;20032;-48
2021/07/10 11:52:55;;;;;;;1.60;1.50;;;24.30;56.50;;;;;;5062515;28;20033;-49
2021/07/10 11:55:23;;;;;;;2.25;1.73;;;24.30;56.40;;;;;;5053689;28;20386;-49
2021/07/10 11:57:49;;;;;;;2.33;1.65;;;24.30;56.50;;;;;;5058708;28;20016;-47
2021/07/10 12:00:16;;;;;;;1.95;1.40;;;24.30;56.50;;;;;;5062644;28;20498;-48
2021/07/10 12:02:42;;;;;;;2.50;1.80;;;24.30;56.50;;;;;;5062177;28;20032;-48
2021/07/10 12:05:13;;;;;;;1.80;1.50;;;24.40;56.50;;;;;;5061383;28;20024;-46
2021/07/10 12:08:11;;;;;;;1.77;1.55;;;24.40;56.60;;;;;;5061339;28;20111;-45
2021/07/10 12:10:40;;;;;;;2.38;1.33;;;24.30;56.50;;;;;;5009638;28;20486;-45
2021/07/10 12:13:14;;;;;;;4.93;1.65;;;24.40;56.50;;;;;;5072149;28;20024;-46
2021/07/10 12:15:43;;;;;;;6.40;1.85;;;24.40;56.50;;;;;;5063111;28;20038;-45
2021/07/10 12:18:11;;;;;;;1.70;1.60;;;24.40;56.50;;;;;;5062640;28;20031;-45
2021/07/10 12:21:10;;;;;;;1.85;1.42;;;24.40;56.50;;;;;;5063125;28;20032;-46
2021/07/10 12:23:41;;;;;;;2.70;1.60;;;24.50;56.50;;;;;;5049430;28;20051;-44
2021/07/10 12:26:10;;;;;;;1.70;1.55;;;24.40;56.40;;;;;;5064551;28;20374;-44
2021/07/10 12:28:49;;;;;;;2.92;1.65;;;24.40;56.30;;;;;;5054665;28;20036;-44
2021/07/10 12:31:30;;;;;;;1.73;1.55;;;24.50;56.40;;;;;;5056045;28;20047;-44
2021/07/10 12:33:58;;;;;;;2.10;1.73;;;24.50;56.50;;;;;;5060710;28;20029;-44
2021/07/10 12:36:26;;;;;;;2.40;1.65;;;24.50;56.40;;;;;;5067616;28;20267;-54
2021/07/10 12:38:53;;;;;;;2.33;1.75;;;24.50;56.40;;;;;;5059152;28;20044;-44
2021/07/10 12:41:25;;;;;;;2.65;1.77;;;24.50;56.40;;;;;;5068134;28;20111;-44
2021/07/10 12:43:51;;;;;;;2.97;1.73;;;24.50;56.60;;;;;;5062146;28;20028;-44
2021/07/10 12:46:17;;;;;;;3.38;1.83;;;24.50;56.60;;;;;;5053038;28;20021;-44
2021/07/10 12:48:43;;;;;;;2.95;2.15;;;24.50;56.60;;;;;;5059194;28;20033;-44
2021/07/10 12:51:09;;;;;;;3.10;1.98;;;24.50;56.70;;;;;;5059917;28;20037;-44